createdAt,value
2024-02-02T00:08:17.024Z,14.10
2024-02-02T00:18:21.660Z,14.70
2024-02-02T00:28:25.409Z,14.70
2024-02-02T00:38:29.060Z,18.10
2024-02-02T00:48:34.278Z,15.80
2024-02-02T00:58:37.807Z,16.80
2024-02-02T01:08:41.442Z,14.80
2024-02-02T01:18:45.300Z,15.70
2024-02-02T01:28:49.247Z,17.30
2024-02-02T01:38:52.726Z,13.70
2024-02-02T01:48:56.406Z,18.10
2024-02-02T01:59:00.370Z,17.80
2024-02-02T02:09:04.085Z,21.00
2024-02-02T02:19:07.804Z,18.10
2024-02-02T02:29:11.563Z,15.60
2024-02-02T02:39:15.929Z,15.80
2024-02-02T02:49:19.967Z,17.20
2024-02-02T02:59:24.021Z,15.90
2024-02-02T03:09:27.531Z,22.10
2024-02-02T03:19:31.694Z,12.50
2024-02-02T03:29:35.398Z,23.30
2024-02-02T03:39:39.079Z,18.20
2024-02-02T03:49:42.803Z,19.60
2024-02-02T03:59:46.436Z,23.20
2024-02-02T04:09:50.082Z,20.50
2024-02-02T04:19:53.678Z,22.10
2024-02-02T04:29:57.698Z,21.60
2024-02-02T04:40:01.759Z,23.00
2024-02-02T04:50:06.315Z,27.70
2024-02-02T05:00:10.763Z,27.20
2024-02-02T05:10:14.220Z,22.90
2024-02-02T05:20:18.082Z,21.00
2024-02-02T05:30:22.355Z,19.00
2024-02-02T05:40:25.841Z,24.00
2024-02-02T05:50:29.644Z,23.20
2024-02-02T06:00:33.167Z,27.60
2024-02-02T06:10:37.084Z,24.90
2024-02-02T06:20:40.803Z,20.20
2024-02-02T06:30:49.563Z,19.80
2024-02-02T06:40:53.007Z,32.10
2024-02-02T06:50:56.628Z,27.10
2024-02-02T07:01:00.401Z,20.40
2024-02-02T07:11:08.783Z,19.10
2024-02-02T07:21:13.801Z,25.60
2024-02-02T07:31:38.218Z,21.30
2024-02-02T07:41:41.941Z,18.80
2024-02-02T07:51:45.737Z,23.40
2024-02-02T08:01:49.343Z,17.90
2024-02-02T08:11:54.334Z,21.10
2024-02-02T08:21:57.767Z,21.40
2024-02-02T08:32:01.414Z,23.00
2024-02-02T08:42:09.864Z,22.40
2024-02-02T08:52:14.575Z,18.30
2024-02-02T09:02:47.344Z,18.30
2024-02-02T09:12:53.872Z,20.30
2024-02-02T09:22:58.191Z,16.70
2024-02-02T09:33:03.435Z,23.10
2024-02-02T09:43:09.211Z,22.60
2024-02-02T09:53:34.528Z,21.10
2024-02-02T10:03:55.843Z,24.80
2024-02-02T10:14:24.119Z,16.40
2024-02-02T10:24:46.904Z,16.80
2024-02-02T10:35:12.571Z,24.70
2024-02-02T10:45:44.424Z,24.70
2024-02-02T10:56:15.328Z,20.20
2024-02-02T11:06:28.331Z,19.00
2024-02-02T11:17:01.534Z,18.50
2024-02-02T11:27:18.693Z,26.30
2024-02-02T11:37:31.560Z,24.90
2024-02-02T11:47:44.326Z,18.10
2024-02-02T11:57:52.326Z,18.70
2024-02-02T12:08:02.432Z,14.50
2024-02-02T12:18:06.774Z,21.10
2024-02-02T12:28:10.597Z,25.90
2024-02-02T12:38:23.827Z,19.40
2024-02-02T12:48:27.766Z,23.50
2024-02-02T12:58:32.187Z,22.00
2024-02-02T13:08:39.645Z,26.10
2024-02-02T13:18:46.114Z,26.90
2024-02-02T13:28:50.652Z,20.30
2024-02-02T13:39:01.508Z,27.10
2024-02-02T13:49:07.845Z,27.20
2024-02-02T13:59:19.456Z,46.80
2024-02-02T14:09:24.042Z,25.90
2024-02-02T14:19:27.913Z,23.40
2024-02-02T14:29:41.919Z,17.70
2024-02-02T14:39:48.243Z,17.80
2024-02-02T14:49:52.702Z,21.50
2024-02-02T14:59:58.750Z,28.40
2024-02-02T15:10:06.710Z,28.00
2024-02-02T15:20:11.902Z,28.80
2024-02-02T15:30:16.171Z,52.50
2024-02-02T15:40:21.755Z,25.60
2024-02-02T15:50:28.146Z,42.30
2024-02-02T16:00:32.728Z,48.20
2024-02-02T16:10:37.466Z,50.50
2024-02-02T16:21:10.171Z,54.50
2024-02-02T16:31:17.016Z,31.30
2024-02-02T16:41:29.801Z,39.90
2024-02-02T16:51:36.661Z,31.00
2024-02-02T17:01:41.691Z,26.10
2024-02-02T17:11:47.164Z,25.30
2024-02-02T17:21:51.517Z,25.00
2024-02-02T17:31:55.507Z,20.70
2024-02-02T17:42:04.067Z,28.70
2024-02-02T17:52:15.236Z,24.20
2024-02-02T18:02:21.325Z,33.10
2024-02-02T18:12:25.757Z,24.40
2024-02-02T18:22:33.562Z,26.10
2024-02-02T18:32:38.528Z,28.80
2024-02-02T18:42:47.875Z,25.50
2024-02-02T18:52:58.941Z,49.60
2024-02-02T19:03:03.225Z,49.20
2024-02-02T19:13:06.979Z,30.40
2024-02-02T19:23:11.449Z,27.40
2024-02-02T19:33:15.759Z,27.00
2024-02-02T19:43:19.612Z,32.40
2024-02-02T19:53:23.717Z,29.70
2024-02-02T20:03:30.722Z,26.20
2024-02-02T20:13:39.219Z,24.20
2024-02-02T20:23:49.793Z,26.50
2024-02-02T20:34:03.849Z,23.20
2024-02-02T20:44:08.017Z,24.00
2024-02-02T20:54:18.184Z,23.00
2024-02-02T21:04:22.397Z,21.20
2024-02-02T21:14:27.083Z,18.60
2024-02-02T21:24:31.137Z,18.50
2024-02-02T21:34:38.259Z,19.20
2024-02-02T21:44:43.905Z,17.10
2024-02-02T21:54:48.375Z,17.30
2024-02-02T22:04:56.465Z,15.00
2024-02-02T22:15:00.964Z,16.90
2024-02-02T22:25:05.104Z,15.10
2024-02-02T22:35:09.876Z,14.80
2024-02-02T22:45:13.641Z,13.90
2024-02-02T22:55:25.487Z,13.30
2024-02-02T23:05:32.608Z,15.20
2024-02-02T23:15:36.642Z,12.80
2024-02-02T23:25:40.405Z,11.70
2024-02-02T23:35:44.149Z,10.80
2024-02-02T23:45:47.816Z,11.30
2024-02-02T23:55:51.430Z,10.80
